Time;durP1;ratioP1;P1;durP2;ratioP2;P2;SDS_P1;SDS_P2;PMS_P1;PMS_P2;Temp;Humidity;BMP_temperature;BMP_pressure;BME280_temperature;BME280_humidity;BME280_pressure;Samples;Min_cycle;Max_cycle;Signal;HPM_P1;HPM_P2
2023/12/15 00:00:11;;;;;;;13.48;7.90;;;;;;;;;;4991617;28;20308;-63
2023/12/15 00:02:36;;;;;;;15.13;9.32;;;;;;;;;;4986147;28;20037;-63
2023/12/15 00:05:01;;;;;;;15.97;8.53;;;;;;;;;;4996459;28;20025;-64
2023/12/15 00:07:27;;;;;;;14.77;8.70;;;;;;;;;;4994012;28;20272;-64
2023/12/15 00:09:52;;;;;;;12.50;8.13;;;;;;;;;;5000762;28;20040;-64
2023/12/15 00:12:17;;;;;;;16.90;9.23;;;;;;;;;;4988060;28;20032;-64
2023/12/15 00:14:42;;;;;;;15.87;9.07;;;;;;;;;;4991903;28;20140;-64
2023/12/15 00:17:08;;;;;;;19.38;10.07;;;;;;;;;;4988945;28;20304;-64
2023/12/15 00:19:33;;;;;;;16.48;9.57;;;;;;;;;;4992223;28;20025;-64
2023/12/15 00:21:58;;;;;;;17.55;9.60;;;;;;;;;;4988039;28;20030;-64
2023/12/15 00:24:24;;;;;;;15.17;9.17;;;;;;;;;;4986861;28;20842;-64
2023/12/15 00:26:49;;;;;;;12.57;8.63;;;;;;;;;;4987925;28;21072;-63
2023/12/15 00:29:14;;;;;;;14.00;7.90;;;;;;;;;;4989143;28;20032;-63
2023/12/15 00:31:39;;;;;;;13.50;7.90;;;;;;;;;;4996476;28;20329;-64
2023/12/15 00:34:05;;;;;;;15.40;8.07;;;;;;;;;;5001233;28;20368;-64
2023/12/15 00:36:30;;;;;;;14.80;9.05;;;;;;;;;;4994442;28;20127;-63
2023/12/15 00:38:55;;;;;;;14.20;8.77;;;;;;;;;;5006568;28;20717;-64
2023/12/15 00:41:20;;;;;;;13.77;8.47;;;;;;;;;;5000132;28;20685;-64
2023/12/15 00:43:46;;;;;;;10.38;7.15;;;;;;;;;;4987938;28;21107;-64
2023/12/15 00:46:11;;;;;;;11.27;7.35;;;;;;;;;;4988258;28;20048;-64
2023/12/15 00:48:36;;;;;;;12.05;7.13;;;;;;;;;;4984059;28;20030;-64
2023/12/15 00:51:01;;;;;;;13.83;7.90;;;;;;;;;;4987055;28;20041;-64
2023/12/15 00:53:32;;;;;;;14.75;7.97;;;;;;;;;;4987752;28;20352;-64
2023/12/15 00:55:57;;;;;;;12.90;6.97;;;;;;;;;;4989220;28;20083;-64
2023/12/15 00:58:22;;;;;;;13.40;7.35;;;;;;;;;;4989774;28;20870;-64
2023/12/15 01:00:48;;;;;;;10.60;7.13;;;;;;;;;;4990773;28;20046;-63
2023/12/15 01:03:13;;;;;;;11.32;7.95;;;;;;;;;;5003339;28;20072;-64
2023/12/15 01:05:38;;;;;;;13.55;8.48;;;;;;;;;;4996625;28;20912;-64
2023/12/15 01:08:03;;;;;;;16.83;8.97;;;;;;;;;;4995500;28;20443;-64
2023/12/15 01:10:29;;;;;;;14.35;8.57;;;;;;;;;;4995426;28;20327;-64
2023/12/15 01:12:54;;;;;;;19.23;9.27;;;;;;;;;;4991887;28;20829;-64
2023/12/15 01:15:19;;;;;;;14.60;9.32;;;;;;;;;;4996043;28;20040;-64
2023/12/15 01:17:44;;;;;;;15.40;9.75;;;;;;;;;;4993378;28;20400;-65
2023/12/15 01:20:10;;;;;;;15.38;9.35;;;;;;;;;;4988876;28;20026;-64
2023/12/15 01:22:35;;;;;;;17.90;9.82;;;;;;;;;;4987880;28;20026;-64
2023/12/15 01:25:01;;;;;;;20.38;10.70;;;;;;;;;;4987977;28;20325;-64
2023/12/15 01:27:26;;;;;;;16.10;9.80;;;;;;;;;;4991217;28;20754;-64
2023/12/15 01:29:51;;;;;;;13.75;9.80;;;;;;;;;;4989698;28;20519;-64
2023/12/15 01:32:17;;;;;;;14.30;10.63;;;;;;;;;;4990699;28;20054;-64
2023/12/15 01:34:42;;;;;;;15.63;10.73;;;;;;;;;;4989289;28;20273;-64
2023/12/15 01:37:07;;;;;;;18.90;10.97;;;;;;;;;;4990069;28;20296;-64
2023/12/15 01:39:33;;;;;;;18.48;10.05;;;;;;;;;;4992240;28;20304;-64
2023/12/15 01:41:58;;;;;;;20.02;11.65;;;;;;;;;;5000857;28;20813;-64
2023/12/15 01:44:23;;;;;;;17.25;10.75;;;;;;;;;;4989963;28;20034;-64
2023/12/15 01:46:48;;;;;;;20.55;12.13;;;;;;;;;;5003539;28;20049;-64
2023/12/15 01:49:13;;;;;;;19.00;11.85;;;;;;;;;;4995291;28;20140;-64
2023/12/15 01:51:39;;;;;;;20.37;11.80;;;;;;;;;;4989925;28;20817;-65
2023/12/15 01:54:04;;;;;;;20.20;13.10;;;;;;;;;;4990773;28;20280;-65
2023/12/15 01:56:29;;;;;;;19.03;12.60;;;;;;;;;;4993163;28;20284;-65
2023/12/15 01:58:54;;;;;;;25.35;14.07;;;;;;;;;;4990485;28;20296;-65
2023/12/15 02:01:20;;;;;;;22.58;13.95;;;;;;;;;;4988246;28;20193;-65
2023/12/15 02:03:45;;;;;;;21.02;12.68;;;;;;;;;;4992453;28;20034;-65
2023/12/15 02:06:10;;;;;;;17.80;12.32;;;;;;;;;;4995480;28;20029;-65
2023/12/15 02:08:35;;;;;;;20.38;12.40;;;;;;;;;;5003021;28;20041;-64
2023/12/15 02:11:00;;;;;;;18.30;11.90;;;;;;;;;;4990186;28;20032;-65
2023/12/15 02:13:26;;;;;;;22.08;11.60;;;;;;;;;;5011553;28;20307;-64
2023/12/15 02:15:51;;;;;;;20.63;13.45;;;;;;;;;;5005370;28;20035;-65
2023/12/15 02:18:16;;;;;;;22.48;13.98;;;;;;;;;;5002074;28;20026;-64
2023/12/15 02:20:41;;;;;;;21.38;13.05;;;;;;;;;;5001752;28;20095;-63
2023/12/15 02:23:07;;;;;;;20.50;12.80;;;;;;;;;;4990683;28;20037;-63
2023/12/15 02:25:32;;;;;;;22.48;12.85;;;;;;;;;;4999776;28;20294;-63
2023/12/15 02:27:57;;;;;;;24.80;12.88;;;;;;;;;;4997618;28;20088;-63
2023/12/15 02:30:22;;;;;;;19.92;13.38;;;;;;;;;;4998661;28;20032;-63
2023/12/15 02:32:48;;;;;;;23.70;11.63;;;;;;;;;;4993002;28;20044;-63
2023/12/15 02:35:14;;;;;;;23.27;13.25;;;;;;;;;;4992977;28;20280;-63
2023/12/15 02:37:39;;;;;;;21.20;12.27;;;;;;;;;;5007505;28;21562;-64
2023/12/15 02:40:05;;;;;;;23.73;12.43;;;;;;;;;;4999488;28;20037;-64
2023/12/15 02:42:30;;;;;;;21.00;11.77;;;;;;;;;;4988723;28;20049;-64
2023/12/15 02:44:55;;;;;;;20.97;10.77;;;;;;;;;;4993598;28;20895;-64
2023/12/15 02:47:21;;;;;;;20.08;12.07;;;;;;;;;;4993985;28;20318;-64
2023/12/15 02:49:46;;;;;;;20.00;10.77;;;;;;;;;;4990457;28;20140;-64
2023/12/15 02:52:11;;;;;;;25.33;10.47;;;;;;;;;;4997889;28;20090;-64
2023/12/15 02:54:36;;;;;;;19.08;10.48;;;;;;;;;;4993226;28;20284;-63
2023/12/15 02:57:02;;;;;;;18.00;10.32;;;;;;;;;;4989650;28;20081;-63
2023/12/15 02:59:27;;;;;;;20.95;10.95;;;;;;;;;;4994918;28;20048;-63
2023/12/15 03:01:52;;;;;;;18.30;11.50;;;;;;;;;;5002166;28;20075;-63
2023/12/15 03:04:17;;;;;;;19.07;11.27;;;;;;;;;;5000292;28;20276;-64
2023/12/15 03:06:42;;;;;;;18.58;11.13;;;;;;;;;;5006072;28;20275;-64
2023/12/15 03:09:08;;;;;;;19.90;11.13;;;;;;;;;;5002703;28;20033;-63
2023/12/15 03:11:33;;;;;;;17.60;11.32;;;;;;;;;;4990253;28;20033;-64
2023/12/15 03:13:58;;;;;;;21.48;12.30;;;;;;;;;;4999453;28;20030;-64
2023/12/15 03:16:24;;;;;;;22.80;11.45;;;;;;;;;;4988798;28;20152;-64
2023/12/15 03:18:49;;;;;;;20.52;13.00;;;;;;;;;;5000340;28;20041;-63
2023/12/15 03:21:14;;;;;;;18.08;11.57;;;;;;;;;;4990558;28;20704;-64
2023/12/15 03:23:40;;;;;;;22.40;11.52;;;;;;;;;;5001772;28;20689;-64
2023/12/15 03:26:06;;;;;;;22.45;12.85;;;;;;;;;;4991922;28;20400;-64
2023/12/15 03:28:31;;;;;;;21.08;12.43;;;;;;;;;;4990906;28;20038;-62
2023/12/15 03:30:56;;;;;;;24.65;13.15;;;;;;;;;;4990637;28;21069;-63
2023/12/15 03:33:28;;;;;;;24.35;12.25;;;;;;;;;;4999773;28;20030;-63
2023/12/15 03:35:53;;;;;;;28.75;14.02;;;;;;;;;;4994958;28;20033;-64
2023/12/15 03:38:19;;;;;;;24.15;14.05;;;;;;;;;;5005464;28;20036;-65
2023/12/15 03:40:45;;;;;;;23.38;12.63;;;;;;;;;;5002523;28;20034;-63
2023/12/15 03:43:10;;;;;;;25.83;13.40;;;;;;;;;;4987354;28;20075;-64
2023/12/15 03:45:35;;;;;;;27.38;14.60;;;;;;;;;;4988306;28;20038;-64
2023/12/15 03:48:01;;;;;;;21.90;12.83;;;;;;;;;;4990337;28;20799;-64
2023/12/15 03:50:26;;;;;;;29.73;15.02;;;;;;;;;;4989891;28;20636;-64
2023/12/15 03:52:51;;;;;;;26.75;14.77;;;;;;;;;;4990180;28;20036;-64
2023/12/15 03:55:17;;;;;;;28.60;15.20;;;;;;;;;;4999235;28;20053;-63
2023/12/15 03:57:42;;;;;;;29.17;15.77;;;;;;;;;;4989244;28;20034;-64
2023/12/15 04:00:08;;;;;;;27.17;14.18;;;;;;;;;;4991183;28;20026;-64
2023/12/15 04:02:33;;;;;;;26.30;15.45;;;;;;;;;;4996765;28;20025;-64
2023/12/15 04:04:59;;;;;;;31.13;15.80;;;;;;;;;;5006602;28;20029;-64
2023/12/15 04:07:24;;;;;;;30.25;15.38;;;;;;;;;;4988270;28;20751;-64
2023/12/15 04:09:49;;;;;;;27.80;15.40;;;;;;;;;;4990364;28;20022;-63
2023/12/15 04:12:14;;;;;;;27.52;15.25;;;;;;;;;;4987367;28;20268;-64
2023/12/15 04:14:39;;;;;;;26.73;14.93;;;;;;;;;;4989047;28;20083;-64
2023/12/15 04:17:05;;;;;;;32.93;16.53;;;;;;;;;;4988376;28;20284;-64
2023/12/15 04:19:30;;;;;;;26.67;16.67;;;;;;;;;;4996652;28;20272;-63
2023/12/15 04:21:55;;;;;;;28.52;15.10;;;;;;;;;;4993518;28;20496;-64
2023/12/15 04:24:21;;;;;;;31.80;15.87;;;;;;;;;;4989342;28;20799;-64
2023/12/15 04:26:46;;;;;;;32.57;16.90;;;;;;;;;;4989002;28;20854;-64
2023/12/15 04:29:11;;;;;;;31.00;16.75;;;;;;;;;;4996527;28;20860;-64
2023/12/15 04:31:36;;;;;;;36.00;15.93;;;;;;;;;;4986586;28;20283;-64
2023/12/15 04:34:02;;;;;;;30.88;16.33;;;;;;;;;;4993268;28;20017;-64
2023/12/15 04:36:27;;;;;;;32.93;17.50;;;;;;;;;;5001370;28;20033;-64
2023/12/15 04:38:52;;;;;;;31.58;16.65;;;;;;;;;;4995023;28;20366;-64
2023/12/15 04:41:19;;;;;;;34.17;16.67;;;;;;;;;;4988862;28;20036;-64
2023/12/15 04:43:45;;;;;;;30.02;16.95;;;;;;;;;;4989255;28;20026;-64
2023/12/15 04:46:10;;;;;;;35.10;16.50;;;;;;;;;;4989390;28;20018;-64
2023/12/15 04:48:35;;;;;;;30.23;16.80;;;;;;;;;;4988241;28;20563;-64
2023/12/15 04:51:00;;;;;;;30.73;18.23;;;;;;;;;;4987458;28;20239;-64
2023/12/15 04:53:26;;;;;;;32.73;15.90;;;;;;;;;;4995383;28;20197;-64
2023/12/15 04:55:51;;;;;;;27.53;17.13;;;;;;;;;;4992565;28;20264;-64
2023/12/15 04:58:16;;;;;;;30.13;17.37;;;;;;;;;;4987358;28;20347;-64
2023/12/15 05:00:41;;;;;;;37.70;17.33;;;;;;;;;;4988878;28;20280;-64
2023/12/15 05:03:07;;;;;;;37.97;17.63;;;;;;;;;;4994187;28;20284;-64
2023/12/15 05:05:32;;;;;;;33.10;16.87;;;;;;;;;;5005649;28;20272;-63
2023/12/15 05:07:57;;;;;;;39.37;16.23;;;;;;;;;;5007543;28;20287;-64
2023/12/15 05:10:22;;;;;;;37.60;17.38;;;;;;;;;;5001893;28;20281;-64
2023/12/15 05:12:48;;;;;;;34.93;16.80;;;;;;;;;;4995535;28;20589;-64
2023/12/15 05:15:13;;;;;;;31.77;16.65;;;;;;;;;;4992247;28;20810;-64
2023/12/15 05:17:39;;;;;;;29.13;15.95;;;;;;;;;;4992893;28;20088;-64
2023/12/15 05:20:04;;;;;;;39.75;16.88;;;;;;;;;;4994222;28;20445;-64
2023/12/15 05:22:30;;;;;;;38.90;17.38;;;;;;;;;;4995140;28;20835;-64
2023/12/15 05:24:55;;;;;;;37.72;16.85;;;;;;;;;;5003852;28;20136;-63
2023/12/15 05:27:20;;;;;;;36.90;15.98;;;;;;;;;;4994194;28;20910;-64
2023/12/15 05:29:46;;;;;;;37.85;18.15;;;;;;;;;;5002324;28;20482;-63
2023/12/15 05:32:12;;;;;;;36.28;17.27;;;;;;;;;;4993032;28;20726;-64
2023/12/15 05:34:37;;;;;;;36.30;17.15;;;;;;;;;;5006444;28;20040;-65
2023/12/15 05:37:02;;;;;;;31.25;15.57;;;;;;;;;;5007908;28;20030;-64
2023/12/15 05:39:27;;;;;;;32.80;16.17;;;;;;;;;;4992369;28;20034;-64
2023/12/15 05:41:53;;;;;;;44.30;17.77;;;;;;;;;;5001569;28;20026;-64
2023/12/15 05:44:18;;;;;;;44.42;18.95;;;;;;;;;;4993381;28;20268;-64
2023/12/15 05:46:44;;;;;;;41.15;18.15;;;;;;;;;;4991639;28;20026;-64
2023/12/15 05:49:10;;;;;;;35.05;18.33;;;;;;;;;;4994775;28;20128;-64
2023/12/15 05:51:35;;;;;;;41.17;17.75;;;;;;;;;;4995962;28;20125;-64
2023/12/15 05:54:00;;;;;;;44.55;18.63;;;;;;;;;;4990208;28;21365;-64
2023/12/15 05:56:25;;;;;;;41.38;18.52;;;;;;;;;;4999701;28;20041;-64
2023/12/15 05:58:50;;;;;;;41.78;18.45;;;;;;;;;;5010496;28;20041;-64
2023/12/15 06:01:16;;;;;;;46.17;17.48;;;;;;;;;;5010841;28;20028;-64
2023/12/15 06:03:41;;;;;;;37.20;18.83;;;;;;;;;;4996513;28;20096;-64
2023/12/15 06:06:06;;;;;;;38.77;17.33;;;;;;;;;;5003598;28;20010;-64
2023/12/15 06:08:32;;;;;;;34.92;18.38;;;;;;;;;;4991849;28;21129;-64
2023/12/15 06:10:57;;;;;;;39.58;18.40;;;;;;;;;;4990961;28;20026;-64
2023/12/15 06:13:22;;;;;;;41.28;18.25;;;;;;;;;;5006022;28;20069;-64
2023/12/15 06:15:48;;;;;;;42.80;19.00;;;;;;;;;;4993291;28;20022;-64
2023/12/15 06:18:13;;;;;;;43.33;19.53;;;;;;;;;;4990792;28;20034;-64
2023/12/15 06:20:38;;;;;;;41.10;17.77;;;;;;;;;;4995826;28;21144;-65
2023/12/15 06:23:03;;;;;;;43.50;19.45;;;;;;;;;;4990977;28;20722;-64
2023/12/15 06:25:29;;;;;;;45.58;20.10;;;;;;;;;;4991813;28;20037;-64
2023/12/15 06:27:54;;;;;;;39.45;18.27;;;;;;;;;;4993987;28;20030;-64
2023/12/15 06:30:19;;;;;;;45.92;18.00;;;;;;;;;;4997569;28;20242;-63
2023/12/15 06:32:44;;;;;;;41.30;18.77;;;;;;;;;;4997516;28;20057;-63
2023/12/15 06:35:09;;;;;;;40.10;17.03;;;;;;;;;;4976440;28;20886;-63
2023/12/15 06:37:35;;;;;;;46.53;19.47;;;;;;;;;;4990841;28;20388;-64
2023/12/15 06:40:00;;;;;;;44.40;18.77;;;;;;;;;;4992037;28;20291;-64
2023/12/15 06:42:25;;;;;;;41.58;18.55;;;;;;;;;;4991994;28;20026;-64
2023/12/15 06:44:50;;;;;;;43.50;18.90;;;;;;;;;;4998726;28;20849;-63
2023/12/15 06:47:15;;;;;;;46.90;19.90;;;;;;;;;;4987466;28;20762;-63
2023/12/15 06:49:41;;;;;;;47.90;19.47;;;;;;;;;;4991069;28;20886;-64
2023/12/15 06:52:07;;;;;;;46.90;19.08;;;;;;;;;;4999101;28;21107;-64
2023/12/15 06:54:32;;;;;;;50.60;20.23;;;;;;;;;;4988867;28;20807;-64
2023/12/15 06:56:58;;;;;;;48.80;18.70;;;;;;;;;;4990346;28;20042;-64
2023/12/15 06:59:23;;;;;;;49.92;21.67;;;;;;;;;;5008650;28;20071;-64
2023/12/15 07:01:48;;;;;;;49.97;21.17;;;;;;;;;;4979605;28;20030;-64
2023/12/15 07:04:13;;;;;;;55.87;23.40;;;;;;;;;;4989680;28;20029;-64
2023/12/15 07:06:38;;;;;;;49.72;19.85;;;;;;;;;;4989400;28;20291;-64
2023/12/15 07:09:04;;;;;;;43.53;19.97;;;;;;;;;;4986614;28;20022;-64
2023/12/15 07:11:29;;;;;;;45.40;19.45;;;;;;;;;;4989745;28;20280;-64
2023/12/15 07:13:54;;;;;;;46.35;20.20;;;;;;;;;;4985712;28;20558;-64
2023/12/15 07:16:20;;;;;;;52.50;21.33;;;;;;;;;;4989094;28;20044;-64
2023/12/15 07:18:45;;;;;;;46.95;20.98;;;;;;;;;;4989730;28;20037;-64
2023/12/15 07:21:11;;;;;;;46.45;19.95;;;;;;;;;;5001369;28;20780;-63
2023/12/15 07:23:36;;;;;;;57.15;21.95;;;;;;;;;;5001872;28;20480;-64
2023/12/15 07:26:01;;;;;;;47.72;21.33;;;;;;;;;;5002845;28;20030;-64
2023/12/15 07:28:27;;;;;;;46.42;19.17;;;;;;;;;;5005537;28;20052;-63
2023/12/15 07:30:52;;;;;;;52.08;20.98;;;;;;;;;;5006133;28;20100;-64
2023/12/15 07:33:17;;;;;;;51.28;20.40;;;;;;;;;;4995981;28;20840;-63
2023/12/15 07:35:42;;;;;;;44.83;19.43;;;;;;;;;;5012258;28;20388;-64
2023/12/15 07:38:08;;;;;;;43.17;19.63;;;;;;;;;;5003481;28;20301;-64
2023/12/15 07:40:33;;;;;;;43.25;19.67;;;;;;;;;;5002580;28;20086;-64
2023/12/15 07:42:59;;;;;;;49.13;21.13;;;;;;;;;;5001438;28;20029;-64
2023/12/15 07:45:24;;;;;;;48.47;19.27;;;;;;;;;;4996064;28;20039;-64
2023/12/15 07:47:50;;;;;;;44.30;19.95;;;;;;;;;;5000221;28;20065;-63
2023/12/15 07:50:15;;;;;;;51.20;21.00;;;;;;;;;;5005297;28;20040;-63
2023/12/15 07:52:40;;;;;;;51.22;19.90;;;;;;;;;;4991342;28;20295;-64
2023/12/15 07:55:06;;;;;;;46.00;19.55;;;;;;;;;;5001835;28;20044;-63
2023/12/15 07:57:34;;;;;;;55.45;20.08;;;;;;;;;;4979952;28;20617;-63
2023/12/15 07:59:59;;;;;;;48.53;21.27;;;;;;;;;;4995958;28;20040;-62
2023/12/15 08:02:24;;;;;;;48.00;20.57;;;;;;;;;;4997521;28;20042;-62
2023/12/15 08:04:50;;;;;;;55.10;19.08;;;;;;;;;;4994996;28;20315;-63
2023/12/15 08:07:15;;;;;;;57.37;22.33;;;;;;;;;;4982935;28;20129;-62
2023/12/15 08:09:40;;;;;;;51.88;21.27;;;;;;;;;;4988077;28;20284;-63
2023/12/15 08:12:05;;;;;;;44.20;19.38;;;;;;;;;;4979118;28;20071;-62
2023/12/15 08:14:31;;;;;;;64.97;23.58;;;;;;;;;;4976700;28;20022;-62
2023/12/15 08:16:56;;;;;;;55.73;21.07;;;;;;;;;;4984716;28;20526;-62
2023/12/15 08:19:22;;;;;;;54.28;21.17;;;;;;;;;;4992552;28;21123;-63
2023/12/15 08:21:51;;;;;;;53.03;21.87;;;;;;;;;;4983928;28;20088;-62
2023/12/15 08:24:16;;;;;;;55.53;21.10;;;;;;;;;;4975592;28;20277;-63
2023/12/15 08:26:42;;;;;;;57.10;20.60;;;;;;;;;;4990510;28;20030;-64
2023/12/15 08:29:07;;;;;;;50.53;20.52;;;;;;;;;;4992431;28;20017;-62
2023/12/15 08:31:32;;;;;;;43.75;20.42;;;;;;;;;;4989361;28;20032;-62
2023/12/15 08:33:57;;;;;;;57.53;22.60;;;;;;;;;;4985909;28;20878;-62
2023/12/15 08:36:23;;;;;;;41.65;20.70;;;;;;;;;;4995128;28;21181;-62
2023/12/15 08:38:48;;;;;;;56.25;22.90;;;;;;;;;;4980674;28;20141;-63
2023/12/15 08:41:13;;;;;;;41.70;20.90;;;;;;;;;;4985415;28;20121;-62
2023/12/15 08:43:39;;;;;;;44.03;20.55;;;;;;;;;;4982009;28;20133;-63
2023/12/15 08:46:05;;;;;;;53.90;21.98;;;;;;;;;;4984113;28;20032;-63
2023/12/15 08:48:30;;;;;;;47.70;20.73;;;;;;;;;;4981893;28;20029;-63
2023/12/15 08:50:57;;;;;;;48.57;21.00;;;;;;;;;;5000851;28;20535;-64
2023/12/15 08:53:24;;;;;;;48.22;21.10;;;;;;;;;;5004747;28;20353;-64
2023/12/15 08:55:51;;;;;;;53.38;22.40;;;;;;;;;;4998804;28;20384;-63
2023/12/15 08:58:16;;;;;;;50.72;22.08;;;;;;;;;;5005589;28;20049;-63
2023/12/15 09:00:42;;;;;;;51.70;21.60;;;;;;;;;;5004881;28;20762;-63
2023/12/15 09:03:07;;;;;;;50.00;23.33;;;;;;;;;;5012519;28;20627;-62
2023/12/15 09:05:33;;;;;;;47.17;21.50;;;;;;;;;;5014065;28;20131;-62
2023/12/15 09:07:59;;;;;;;54.50;22.95;;;;;;;;;;5010476;28;20029;-63
2023/12/15 09:10:24;;;;;;;47.28;22.27;;;;;;;;;;5019365;28;20034;-62
2023/12/15 09:12:50;;;;;;;47.42;20.60;;;;;;;;;;4992593;28;20034;-62
2023/12/15 09:15:15;;;;;;;52.30;22.52;;;;;;;;;;5011000;28;20050;-62
2023/12/15 09:17:43;;;;;;;52.65;21.85;;;;;;;;;;5010561;28;20038;-62
2023/12/15 09:20:10;;;;;;;48.30;22.23;;;;;;;;;;5007696;28;20041;-62
2023/12/15 09:22:35;;;;;;;59.17;24.58;;;;;;;;;;5005697;28;20467;-62
2023/12/15 09:25:00;;;;;;;47.65;23.48;;;;;;;;;;5008772;28;20034;-62
2023/12/15 09:27:25;;;;;;;58.30;24.77;;;;;;;;;;5009009;28;20037;-62
2023/12/15 09:29:51;;;;;;;52.13;23.70;;;;;;;;;;5016173;28;20283;-62
2023/12/15 09:32:16;;;;;;;50.60;23.93;;;;;;;;;;5011503;28;20307;-62
2023/12/15 09:34:41;;;;;;;50.50;23.13;;;;;;;;;;5005876;28;20268;-62
2023/12/15 09:37:07;;;;;;;48.05;24.60;;;;;;;;;;5010779;28;20284;-62
2023/12/15 09:39:33;;;;;;;50.70;24.95;;;;;;;;;;5004746;28;20030;-63
2023/12/15 09:41:58;;;;;;;52.58;22.67;;;;;;;;;;5012367;28;20498;-63
2023/12/15 09:44:23;;;;;;;48.23;23.90;;;;;;;;;;4994544;28;20523;-63
2023/12/15 09:46:49;;;;;;;42.60;22.17;;;;;;;;;;4979012;28;20973;-62
2023/12/15 09:49:16;;;;;;;50.75;24.10;;;;;;;;;;4992440;28;20018;-63
2023/12/15 09:51:46;;;;;;;41.55;22.52;;;;;;;;;;4999824;28;20088;-65
2023/12/15 09:54:11;;;;;;;42.72;22.67;;;;;;;;;;4994265;28;20486;-62
2023/12/15 09:56:36;;;;;;;43.78;22.63;;;;;;;;;;4998822;28;20041;-63
2023/12/15 09:59:02;;;;;;;44.57;22.57;;;;;;;;;;5019915;28;20026;-63
2023/12/15 10:01:27;;;;;;;39.63;21.27;;;;;;;;;;5014773;28;20283;-62
2023/12/15 10:03:53;;;;;;;45.97;21.10;;;;;;;;;;5026836;28;20036;-64
2023/12/15 10:06:18;;;;;;;44.58;21.40;;;;;;;;;;5013241;28;20272;-65
2023/12/15 10:08:44;;;;;;;41.72;21.38;;;;;;;;;;5013433;28;20160;-64
2023/12/15 10:11:10;;;;;;;36.95;19.88;;;;;;;;;;5015207;28;20041;-64
2023/12/15 10:13:35;;;;;;;45.05;22.05;;;;;;;;;;5012555;28;20498;-64
2023/12/15 10:16:00;;;;;;;40.55;19.27;;;;;;;;;;5020465;28;20148;-62
2023/12/15 10:18:26;;;;;;;39.28;19.60;;;;;;;;;;5024012;28;20041;-63
2023/12/15 10:20:53;;;;;;;39.38;21.58;;;;;;;;;;5017329;28;20027;-62
2023/12/15 10:23:25;;;;;;;39.78;20.20;;;;;;;;;;5015669;28;20219;-62
2023/12/15 10:25:51;;;;;;;41.05;20.50;;;;;;;;;;5018016;28;20060;-63
2023/12/15 10:28:16;;;;;;;42.22;21.52;;;;;;;;;;5024270;28;20026;-64
2023/12/15 10:30:41;;;;;;;31.02;18.02;;;;;;;;;;5012439;28;20029;-64
2023/12/15 10:33:07;;;;;;;34.57;19.43;;;;;;;;;;5014661;28;20652;-64
2023/12/15 10:35:32;;;;;;;29.30;17.20;;;;;;;;;;5013134;28;20692;-64
2023/12/15 10:37:58;;;;;;;33.25;17.27;;;;;;;;;;4999553;28;20087;-66
2023/12/15 10:40:24;;;;;;;32.20;18.25;;;;;;;;;;4974290;28;20037;-66
2023/12/15 10:42:50;;;;;;;29.42;16.92;;;;;;;;;;4997235;28;20097;-68
2023/12/15 10:45:17;;;;;;;32.90;16.58;;;;;;;;;;5002900;28;20030;-64
2023/12/15 10:47:43;;;;;;;35.00;18.38;;;;;;;;;;4992430;28;20030;-67
2023/12/15 10:50:09;;;;;;;34.20;17.92;;;;;;;;;;4990392;28;20021;-68
2023/12/15 10:52:39;;;;;;;25.58;15.82;;;;;;;;;;4986147;28;20067;-61
2023/12/15 10:55:06;;;;;;;29.33;15.93;;;;;;;;;;4985724;28;20028;-66
2023/12/15 10:57:31;;;;;;;29.92;15.85;;;;;;;;;;4998060;28;20895;-66
2023/12/15 10:59:57;;;;;;;29.25;14.73;;;;;;;;;;4988783;28;20033;-73
2023/12/15 11:02:23;;;;;;;28.00;16.13;;;;;;;;;;4997175;28;20036;-67
2023/12/15 11:04:51;;;;;;;28.42;15.57;;;;;;;;;;5003301;28;20029;-70
2023/12/15 11:07:20;;;;;;;31.58;16.95;;;;;;;;;;4998422;28;20076;-64
2023/12/15 11:09:45;;;;;;;26.92;13.88;;;;;;;;;;4991105;28;20026;-66
2023/12/15 11:12:23;;;;;;;33.47;16.33;;;;;;;;;;4995665;28;20064;-65
2023/12/15 11:14:53;;;;;;;28.08;14.90;;;;;;;;;;4992557;28;20018;-68
2023/12/15 11:17:18;;;;;;;30.05;15.07;;;;;;;;;;4985586;28;20018;-68
2023/12/15 11:19:45;;;;;;;34.90;16.67;;;;;;;;;;4977335;28;20550;-64
2023/12/15 11:22:11;;;;;;;33.92;15.60;;;;;;;;;;4979952;28;20018;-65
2023/12/15 11:24:36;;;;;;;26.60;14.13;;;;;;;;;;4991021;28;20868;-65
2023/12/15 11:27:01;;;;;;;29.60;14.90;;;;;;;;;;4986479;28;21033;-68
2023/12/15 11:29:33;;;;;;;25.83;14.73;;;;;;;;;;4988049;28;20821;-68
2023/12/15 11:32:18;;;;;;;23.27;14.52;;;;;;;;;;4975567;28;21262;-66
2023/12/15 11:34:43;;;;;;;27.05;15.50;;;;;;;;;;4983718;28;20025;-63
2023/12/15 11:37:11;;;;;;;24.13;13.85;;;;;;;;;;4977859;28;20125;-61
2023/12/15 11:39:39;;;;;;;24.25;13.32;;;;;;;;;;4988654;28;20145;-68
2023/12/15 11:42:04;;;;;;;24.63;13.20;;;;;;;;;;4979720;28;20026;-67
2023/12/15 11:44:30;;;;;;;25.95;13.45;;;;;;;;;;4988782;28;20081;-66
2023/12/15 11:46:55;;;;;;;20.08;11.13;;;;;;;;;;4974333;28;20025;-69
2023/12/15 11:49:24;;;;;;;27.23;12.38;;;;;;;;;;4992706;28;20132;-67
2023/12/15 11:51:50;;;;;;;27.27;11.38;;;;;;;;;;4975605;28;20018;-67
2023/12/15 11:54:16;;;;;;;21.88;12.60;;;;;;;;;;4978694;28;20029;-67
2023/12/15 11:56:41;;;;;;;23.13;12.18;;;;;;;;;;4980843;28;20021;-67
2023/12/15 11:59:06;;;;;;;27.80;12.95;;;;;;;;;;4991607;28;20906;-67
2023/12/15 12:01:35;;;;;;;20.05;12.25;;;;;;;;;;4977786;28;20065;-67
2023/12/15 12:04:00;;;;;;;21.58;11.77;;;;;;;;;;4987450;28;20025;-66
2023/12/15 12:06:26;;;;;;;20.05;12.63;;;;;;;;;;4994421;28;20904;-67
2023/12/15 12:08:51;;;;;;;21.50;12.15;;;;;;;;;;4974333;28;20096;-67
2023/12/15 12:11:17;;;;;;;20.55;12.45;;;;;;;;;;4979687;28;20948;-67
2023/12/15 12:13:42;;;;;;;27.98;14.70;;;;;;;;;;4977173;28;20181;-67
2023/12/15 12:16:08;;;;;;;25.90;13.52;;;;;;;;;;4979437;28;20026;-67
2023/12/15 12:18:33;;;;;;;25.00;14.13;;;;;;;;;;4976666;28;20057;-67
2023/12/15 12:21:05;;;;;;;20.23;13.02;;;;;;;;;;4980025;28;20026;-67
2023/12/15 12:23:31;;;;;;;23.90;12.05;;;;;;;;;;4976445;28;20032;-67
2023/12/15 12:25:57;;;;;;;24.30;12.45;;;;;;;;;;4988094;28;20030;-67
2023/12/15 12:28:22;;;;;;;21.83;12.82;;;;;;;;;;4989458;28;20825;-67
2023/12/15 12:30:48;;;;;;;23.17;11.68;;;;;;;;;;4985367;28;20052;-67
2023/12/15 12:33:14;;;;;;;22.75;11.48;;;;;;;;;;4984088;28;20763;-67
2023/12/15 12:35:39;;;;;;;22.08;10.85;;;;;;;;;;4980199;28;20029;-67
2023/12/15 12:38:06;;;;;;;22.55;12.80;;;;;;;;;;4976189;28;20025;-67
2023/12/15 12:40:32;;;;;;;16.33;10.05;;;;;;;;;;4972933;28;20820;-67
2023/12/15 12:42:58;;;;;;;18.95;9.90;;;;;;;;;;4976587;28;20022;-67
2023/12/15 12:45:23;;;;;;;17.23;10.23;;;;;;;;;;4981225;28;20041;-67
2023/12/15 12:47:49;;;;;;;15.50;10.10;;;;;;;;;;4985776;28;20029;-67
2023/12/15 12:50:15;;;;;;;22.05;9.93;;;;;;;;;;4978926;28;20045;-67
2023/12/15 12:52:40;;;;;;;17.33;9.48;;;;;;;;;;4977212;28;20072;-67
2023/12/15 12:55:06;;;;;;;16.93;9.20;;;;;;;;;;4978424;28;20832;-67
2023/12/15 12:57:34;;;;;;;19.85;8.55;;;;;;;;;;4977776;28;21295;-68
2023/12/15 13:00:00;;;;;;;16.13;8.80;;;;;;;;;;4982385;28;20089;-67
2023/12/15 13:02:25;;;;;;;14.35;8.02;;;;;;;;;;4978011;28;20106;-68
2023/12/15 13:04:50;;;;;;;13.75;7.70;;;;;;;;;;4984569;28;20127;-67
2023/12/15 13:07:16;;;;;;;12.90;7.53;;;;;;;;;;4985843;28;20176;-67
2023/12/15 13:09:41;;;;;;;17.33;7.43;;;;;;;;;;4978400;28;20026;-67
2023/12/15 13:12:06;;;;;;;14.73;7.25;;;;;;;;;;4977993;28;20271;-68
2023/12/15 13:14:31;;;;;;;19.02;8.30;;;;;;;;;;4987635;28;20061;-68
2023/12/15 13:16:57;;;;;;;12.02;6.13;;;;;;;;;;4998093;28;20037;-69
2023/12/15 13:19:25;;;;;;;11.93;6.55;;;;;;;;;;4982708;28;20825;-72
2023/12/15 13:21:50;;;;;;;16.35;6.57;;;;;;;;;;4978420;28;20128;-61
2023/12/15 13:24:15;;;;;;;15.73;6.20;;;;;;;;;;4982118;28;20947;-61
2023/12/15 13:26:41;;;;;;;12.50;6.35;;;;;;;;;;4983212;28;20681;-60
2023/12/15 13:29:07;;;;;;;13.57;5.63;;;;;;;;;;4995105;28;20080;-69
2023/12/15 13:31:33;;;;;;;14.85;6.07;;;;;;;;;;4992617;28;20423;-62
2023/12/15 13:33:58;;;;;;;13.57;6.00;;;;;;;;;;4984812;28;20017;-63
2023/12/15 13:36:23;;;;;;;12.48;5.93;;;;;;;;;;4986713;28;20088;-64
2023/12/15 13:38:49;;;;;;;12.17;5.37;;;;;;;;;;4986367;28;20102;-64
2023/12/15 13:41:14;;;;;;;11.38;5.78;;;;;;;;;;4983397;28;20268;-64
2023/12/15 13:43:40;;;;;;;12.75;5.18;;;;;;;;;;4993536;28;20022;-64
2023/12/15 13:46:08;;;;;;;16.05;5.20;;;;;;;;;;4996631;28;21007;-65
2023/12/15 13:48:34;;;;;;;9.82;5.05;;;;;;;;;;4993512;28;20021;-67
2023/12/15 13:50:59;;;;;;;11.68;5.47;;;;;;;;;;4983066;28;20166;-66
2023/12/15 13:53:25;;;;;;;11.77;5.72;;;;;;;;;;4997039;28;20039;-67
2023/12/15 13:55:50;;;;;;;9.75;5.53;;;;;;;;;;5013638;28;20057;-67
2023/12/15 13:58:16;;;;;;;10.20;5.78;;;;;;;;;;5007528;28;20034;-67
2023/12/15 14:00:41;;;;;;;11.57;5.55;;;;;;;;;;4990242;28;20458;-64
2023/12/15 14:03:07;;;;;;;15.10;5.78;;;;;;;;;;4980829;28;20021;-66
2023/12/15 14:05:32;;;;;;;10.73;5.63;;;;;;;;;;4999072;28;20025;-66
2023/12/15 14:07:57;;;;;;;14.03;6.53;;;;;;;;;;4990844;28;20780;-65